Time;durP1;ratioP1;P1;durP2;ratioP2;P2;SDS_P1;SDS_P2;PMS_P1;PMS_P2;Temp;Humidity;BMP_temperature;BMP_pressure;BME280_temperature;BME280_humidity;BME280_pressure;Samples;Min_cycle;Max_cycle;Signal;HPM_P1;HPM_P2
2022/05/04 00:01:48;;;;;;;15.27;9.82;;;;;;;10.71;57.60;100209.41;30961834;28;96769;-68
2022/05/04 00:16:48;;;;;;;14.98;9.45;;;;;;;10.42;57.83;100208.13;30865027;28;110203;-68
2022/05/04 00:31:49;;;;;;;17.50;9.45;;;;;;;10.23;57.65;100195.16;30925073;28;97312;-73
2022/05/04 00:46:49;;;;;;;16.15;9.70;;;;;;;9.99;58.63;100210.09;30988010;28;98091;-68
2022/05/04 01:01:50;;;;;;;18.48;9.73;;;;;;;9.77;58.67;100209.78;30996372;28;109957;-68
2022/05/04 01:16:51;;;;;;;19.02;9.20;;;;;;;9.55;59.65;100221.03;30985179;28;97153;-71
2022/05/04 01:31:51;;;;;;;16.67;8.70;;;;;;;9.33;60.01;100233.94;30981467;28;96782;-68
2022/05/04 01:46:51;;;;;;;16.38;9.20;;;;;;;9.20;60.07;100228.22;30884638;28;96695;-68
2022/05/04 02:01:52;;;;;;;15.68;9.52;;;;;;;9.20;60.62;100234.41;30856563;28;97060;-69
2022/05/04 02:16:52;;;;;;;13.90;9.77;;;;;;;9.28;61.22;100250.38;30916943;28;96785;-69
2022/05/04 02:31:53;;;;;;;18.45;9.32;;;;;;;9.53;60.93;100242.47;30977886;28;96731;-68
2022/05/04 02:46:53;;;;;;;19.55;10.70;;;;;;;9.59;61.06;100252.44;30978282;28;96816;-68
2022/05/04 03:17:13;;;;;;;20.67;11.17;;;;;;;9.62;60.90;100264.59;30981822;28;97110;-69
2022/05/04 03:32:13;;;;;;;22.90;9.63;;;;;;;9.59;61.62;100264.94;30890367;28;96751;-68
2022/05/04 03:47:13;;;;;;;30.02;10.85;;;;;;;9.98;61.92;100269.66;30869610;28;96707;-68
2022/05/04 04:02:14;;;;;;;33.63;11.85;;;;;;;10.22;62.21;100279.50;30866785;28;97531;-72
2022/05/04 04:17:14;;;;;;;18.40;9.77;;;;;;;10.53;61.18;100294.03;30863005;28;105713;-67
2022/05/04 04:32:14;;;;;;;18.58;8.48;;;;;;;10.88;60.40;100286.63;30859933;28;96788;-72
2022/05/04 04:47:15;;;;;;;18.02;8.73;;;;;;;11.04;59.23;100297.25;30861359;28;96894;-68
2022/05/04 05:02:16;;;;;;;18.55;9.65;;;;;;;11.12;59.06;100318.56;30859608;28;97608;-68
2022/05/04 05:17:16;;;;;;;16.75;8.35;;;;;;;11.66;58.62;100330.41;30858315;28;97199;-71
2022/05/04 05:32:16;;;;;;;14.77;8.50;;;;;;;12.32;57.10;100324.69;30883075;28;107564;-70
2022/05/04 05:47:17;;;;;;;17.35;8.45;;;;;;;12.98;55.41;100332.13;30958415;28;102019;-69
2022/05/04 06:02:19;;;;;;;14.25;8.90;;;;;;;13.81;53.89;100327.50;30971917;28;97729;-67
2022/05/04 06:17:20;;;;;;;13.87;8.83;;;;;;;14.81;51.80;100330.34;30963861;28;97026;-67
2022/05/04 06:47:39;;;;;;;15.27;9.57;;;;;;;16.94;47.35;100338.56;30865566;28;96604;-79
2022/05/04 07:02:40;;;;;;;13.88;9.23;;;;;;;17.87;45.12;100340.16;30871440;28;108030;-73
2022/05/04 07:17:40;;;;;;;14.10;9.02;;;;;;;18.86;43.16;100340.56;30869369;28;97085;-72
2022/05/04 07:32:40;;;;;;;13.55;8.18;;;;;;;19.72;39.63;100359.59;30933393;28;102792;-68
2022/05/04 07:47:41;;;;;;;14.38;8.15;;;;;;;21.01;37.66;100367.56;30941896;28;97547;-68
2022/05/04 08:18:06;;;;;;;14.03;7.57;;;;;;;23.01;33.05;100367.09;30855125;28;97016;-69
2022/05/04 08:33:07;;;;;;;11.03;7.37;;;;;;;23.57;30.73;100377.97;30860019;28;97328;-76
2022/05/04 08:48:11;;;;;;;11.07;6.07;;;;;;;24.80;29.28;100370.28;30907404;28;100388;-68
2022/05/04 09:03:11;;;;;;;10.27;6.27;;;;;;;25.58;27.53;100372.41;30983039;28;97461;-68
2022/05/04 11:26:17;;;;;;;8.60;5.87;;;;;;;27.19;22.44;100306.72;31081904;28;96285;-67
2022/05/04 11:41:17;;;;;;;11.00;5.33;;;;;;;27.62;21.75;100300.00;31074761;28;97447;-67
2022/05/04 11:56:18;;;;;;;9.98;5.57;;;;;;;28.15;20.65;100286.56;31075928;28;96713;-77
2022/05/04 12:11:19;;;;;;;7.50;4.95;;;;;;;28.58;19.81;100274.94;31070150;28;97155;-76
2022/05/04 12:26:20;;;;;;;10.27;4.88;;;;;;;30.00;19.26;100267.19;30986902;28;97495;-72
2022/05/04 12:41:22;;;;;;;7.70;4.53;;;;;;;30.61;18.29;100258.25;30987670;28;98086;-73
2022/05/04 13:11:42;;;;;;;10.27;4.30;;;;;;;29.68;18.84;100227.56;30984811;28;97054;-69
2022/05/04 13:26:42;;;;;;;6.30;3.70;;;;;;;28.49;19.37;100216.41;30944650;28;97663;-69
2022/05/04 13:41:43;;;;;;;9.20;4.50;;;;;;;28.29;19.95;100217.44;30835058;28;112215;-70
2022/05/04 13:56:43;;;;;;;5.80;3.80;;;;;;;27.67;20.43;100202.28;30934395;28;97890;-81
2022/05/04 14:11:43;;;;;;;7.75;4.47;;;;;;;27.13;20.94;100200.38;30987313;28;97722;-69
2022/05/04 14:26:44;;;;;;;8.25;3.67;;;;;;;26.09;22.37;100199.00;30978512;28;96774;-73
2022/05/04 14:41:45;;;;;;;5.73;3.20;;;;;;;25.50;23.31;100190.19;30976014;28;97183;-73
2022/05/04 14:56:45;;;;;;;7.85;3.65;;;;;;;25.25;23.36;100180.84;30976341;28;97302;-70
2022/05/04 15:11:47;;;;;;;8.82;4.10;;;;;;;24.55;24.14;100189.25;30973429;28;96826;-68
2022/05/04 15:26:47;;;;;;;9.57;3.63;;;;;;;24.24;24.29;100186.31;30932227;28;97899;-68
2022/05/04 15:41:48;;;;;;;11.07;4.95;;;;;;;23.42;25.32;100175.50;30900376;28;96920;-68
2022/05/04 15:56:51;;;;;;;7.37;3.20;;;;;;;22.62;26.92;100189.50;30894000;28;97491;-69
2022/05/04 16:11:52;;;;;;;9.57;4.00;;;;;;;22.25;27.75;100176.44;30970418;28;97477;-73
2022/05/04 16:26:52;;;;;;;10.70;3.40;;;;;;;22.03;28.02;100172.81;30947528;28;97211;-68
2022/05/04 16:41:53;;;;;;;4.33;3.20;;;;;;;21.66;28.43;100179.53;30863493;28;97315;-68
2022/05/04 16:56:53;;;;;;;6.15;3.17;;;;;;;21.05;29.30;100162.91;30859886;28;96772;-69
2022/05/04 17:11:53;;;;;;;7.47;3.47;;;;;;;20.43;29.88;100173.22;30885427;28;112560;-67
2022/05/04 17:26:54;;;;;;;7.13;3.17;;;;;;;19.91;30.68;100187.41;30856925;28;102118;-68
2022/05/04 17:41:54;;;;;;;12.57;4.53;;;;;;;19.33;31.50;100206.94;30858611;28;109462;-73
2022/05/04 17:56:54;;;;;;;9.57;4.63;;;;;;;18.69;32.61;100207.25;30858616;28;97316;-70
2022/05/04 18:11:55;;;;;;;13.13;5.47;;;;;;;17.98;34.21;100207.44;30853436;28;96904;-69
2022/05/04 18:26:55;;;;;;;67.82;17.15;;;;;;;17.36;35.62;100215.22;30883622;28;97524;-70
2022/05/04 18:41:55;;;;;;;71.07;16.75;;;;;;;16.78;37.36;100229.50;30975336;28;97428;-68
2022/05/04 18:56:56;;;;;;;38.05;10.30;;;;;;;16.31;38.23;100246.50;30976541;28;97187;-69
2022/05/04 19:11:57;;;;;;;20.50;7.20;;;;;;;15.95;39.98;100245.03;30974087;28;97197;-68
2022/05/04 19:26:57;;;;;;;18.63;6.68;;;;;;;15.59;40.78;100253.38;30980473;28;96699;-68
2022/05/04 19:41:57;;;;;;;18.63;6.88;;;;;;;15.27;42.37;100261.06;30993910;28;96674;-74
2022/05/04 19:56:58;;;;;;;12.02;5.13;;;;;;;14.96;43.34;100276.59;30988268;28;97203;-74
2022/05/04 20:11:58;;;;;;;10.13;4.75;;;;;;;14.67;43.98;100281.16;30988936;28;96759;-68
2022/05/04 20:26:58;;;;;;;10.85;6.07;;;;;;;14.43;44.91;100271.66;30988670;28;99521;-68
2022/05/04 20:41:59;;;;;;;15.85;6.40;;;;;;;14.12;45.67;100274.66;30988991;28;101618;-68
2022/05/04 20:57:00;;;;;;;14.00;7.25;;;;;;;13.90;46.42;100277.38;30987493;28;96671;-67
2022/05/04 21:12:02;;;;;;;12.37;6.87;;;;;;;13.68;47.21;100289.88;30972981;28;97119;-74
2022/05/04 21:27:03;;;;;;;11.20;7.17;;;;;;;13.42;47.92;100296.53;30984955;28;96922;-69
2022/05/04 21:42:04;;;;;;;11.83;6.43;;;;;;;13.20;48.87;100303.63;30983605;28;96835;-69
2022/05/04 21:57:05;;;;;;;17.30;7.32;;;;;;;13.02;49.93;100296.00;30982171;28;96753;-69
2022/05/04 22:27:24;;;;;;;20.40;7.90;;;;;;;12.53;51.57;100276.75;30980295;28;96735;-73
2022/05/04 22:42:25;;;;;;;15.80;8.77;;;;;;;12.21;53.38;100282.38;30979543;28;96650;-69
2022/05/04 22:57:25;;;;;;;14.95;8.52;;;;;;;12.04;53.82;100277.13;30978225;28;96835;-72
2022/05/04 23:12:26;;;;;;;14.38;7.82;;;;;;;11.66;54.62;100285.84;30976150;28;96742;-74
2022/05/04 23:27:27;;;;;;;14.97;8.93;;;;;;;11.34;55.88;100300.16;30975833;28;98094;-73
2022/05/04 23:42:27;;;;;;;17.33;10.05;;;;;;;11.04;57.45;100312.44;30974376;28;97422;-68
2022/05/04 23:57:27;;;;;;;20.15;10.43;;;;;;;10.76;57.84;100294.16;30974288;28;96644;-70
